Time;durP1;ratioP1;P1;durP2;ratioP2;P2;SDS_P1;SDS_P2;PMS_P1;PMS_P2;Temp;Humidity;BMP_temperature;BMP_pressure;BME280_temperature;BME280_humidity;BME280_pressure;Samples;Min_cycle;Max_cycle;Signal;HPM_P1;HPM_P2
2023/06/09 00:01:11;;;;;;;3.37;3.17;;;;;;;16.26;92.78;99957.13;5003197;28;20448;-50
2023/06/09 00:03:39;;;;;;;4.20;3.73;;;;;;;16.27;91.31;99954.38;5004812;28;20480;-50
2023/06/09 00:06:08;;;;;;;2.70;2.50;;;;;;;16.20;92.31;99953.00;5009638;28;20540;-51
2023/06/09 00:08:36;;;;;;;8.63;3.40;;;;;;;16.00;92.97;99956.78;5009266;28;20444;-50
2023/06/09 00:11:02;;;;;;;3.67;3.40;;;;;;;16.15;92.35;99954.19;5003061;28;20456;-50
2023/06/09 00:13:29;;;;;;;3.97;2.53;;;;;;;16.21;92.03;99953.88;5003624;28;20480;-50
2023/06/09 00:15:56;;;;;;;4.90;3.50;;;;;;;16.00;93.70;99950.56;5009688;28;20461;-50
2023/06/09 00:18:24;;;;;;;3.77;3.57;;;;;;;16.19;92.30;99953.97;5009078;28;20905;-51
2023/06/09 00:20:51;;;;;;;4.83;2.70;;;;;;;16.26;92.66;99952.63;5002904;28;20992;-51
2023/06/09 00:23:17;;;;;;;2.87;2.57;;;;;;;16.01;93.37;99946.94;5002956;28;20481;-50
2023/06/09 00:25:44;;;;;;;9.90;3.93;;;;;;;16.09;92.93;99954.56;5016069;28;20468;-50
2023/06/09 00:28:10;;;;;;;5.43;3.10;;;;;;;16.11;92.71;99947.28;5002717;28;20453;-52
2023/06/09 00:30:37;;;;;;;5.57;4.00;;;;;;;15.90;93.53;99946.69;5009209;28;20508;-50
2023/06/09 00:33:06;;;;;;;3.70;3.40;;;;;;;15.76;93.88;99943.88;5008925;28;20452;-50
2023/06/09 00:35:33;;;;;;;5.47;5.07;;;;;;;15.69;95.54;99946.06;5003311;28;21015;-50
2023/06/09 00:37:59;;;;;;;4.53;4.23;;;;;;;15.43;96.15;99949.25;5002612;28;20958;-50
2023/06/09 00:40:26;;;;;;;4.10;3.80;;;;;;;15.70;95.62;99948.66;5008507;28;20575;-50
2023/06/09 00:42:53;;;;;;;6.20;4.47;;;;;;;15.48;95.49;99948.06;5009024;28;20502;-49
2023/06/09 00:45:19;;;;;;;13.50;3.23;;;;;;;15.45;95.75;99945.53;5003261;28;20447;-50
2023/06/09 00:47:46;;;;;;;6.43;4.20;;;;;;;15.56;96.21;99947.66;5002063;28;20488;-50
2023/06/09 00:50:16;;;;;;;4.70;3.60;;;;;;;15.53;95.50;99942.47;5023746;28;20530;-50
2023/06/09 00:52:44;;;;;;;4.10;3.80;;;;;;;15.39;95.68;99948.56;5006726;28;20533;-50
2023/06/09 00:55:12;;;;;;;8.70;5.70;;;;;;;15.25;96.39;99948.44;5006169;28;20552;-50
2023/06/09 00:57:41;;;;;;;3.83;3.37;;;;;;;15.62;95.36;99952.69;5000616;28;20436;-50
2023/06/09 01:00:10;;;;;;;7.37;3.83;;;;;;;15.48;95.59;99941.81;5005085;28;20516;-49
2023/06/09 01:02:38;;;;;;;3.97;3.77;;;;;;;15.32;96.80;99947.16;5009088;28;20549;-50
2023/06/09 01:05:08;;;;;;;5.17;4.77;;;;;;;15.52;95.68;99959.50;5006345;28;20468;-51
2023/06/09 01:07:46;;;;;;;3.43;3.23;;;;;;;15.18;95.76;99949.69;5001599;28;20480;-50
2023/06/09 01:10:25;;;;;;;4.37;4.00;;;;;;;15.17;95.95;99961.34;5002417;28;20441;-50
2023/06/09 01:13:17;;;;;;;4.43;3.50;;;;;;;15.06;98.69;99961.91;4995400;28;21025;-50
2023/06/09 01:15:50;;;;;;;4.80;4.40;;;;;;;14.97;98.79;99962.41;5008813;28;20441;-51
2023/06/09 01:18:17;;;;;;;9.70;4.33;;;;;;;15.13;98.08;99959.81;5008000;28;20574;-50
2023/06/09 01:20:56;;;;;;;3.13;2.93;;;;;;;15.07;98.05;99953.81;5001800;28;20498;-50
2023/06/09 01:23:51;;;;;;;6.23;3.90;;;;;;;14.95;98.09;99957.16;5001738;28;20834;-50
2023/06/09 01:26:18;;;;;;;4.23;3.83;;;;;;;14.90;98.70;99955.63;5009590;28;20448;-49
2023/06/09 01:28:47;;;;;;;4.13;3.60;;;;;;;14.88;98.30;99955.72;5001688;28;20449;-49
2023/06/09 01:31:15;;;;;;;4.03;3.63;;;;;;;14.74;98.95;99951.06;5002481;28;20454;-49
2023/06/09 01:33:44;;;;;;;9.40;3.83;;;;;;;14.84;98.79;99940.78;5008362;28;20477;-51
2023/06/09 01:36:11;;;;;;;4.47;4.07;;;;;;;14.90;97.63;99948.47;5007919;28;20449;-51
2023/06/09 01:38:38;;;;;;;22.83;4.07;;;;;;;14.93;97.80;99947.44;5001558;28;20467;-51
2023/06/09 01:41:05;;;;;;;23.60;4.30;;;;;;;15.00;97.69;99947.06;5001673;28;20456;-51
2023/06/09 01:43:31;;;;;;;3.70;3.50;;;;;;;15.04;96.92;99943.25;4994913;28;20501;-48
2023/06/09 01:45:58;;;;;;;3.77;3.47;;;;;;;14.97;96.55;99946.34;5007861;28;20453;-49
2023/06/09 01:48:40;;;;;;;8.93;4.20;;;;;;;14.83;96.96;99949.75;5001909;28;20449;-49
2023/06/09 01:51:22;;;;;;;5.20;4.20;;;;;;;15.18;95.93;99936.31;5024820;28;20940;-49
2023/06/09 01:53:56;;;;;;;3.33;3.13;;;;;;;14.83;96.71;99947.06;5006124;28;20472;-49
2023/06/09 01:56:30;;;;;;;4.57;4.27;;;;;;;14.90;96.82;99943.13;4996401;28;20450;-49
2023/06/09 01:59:02;;;;;;;3.87;3.53;;;;;;;15.05;95.91;99945.00;5007869;28;20491;-49
2023/06/09 02:01:33;;;;;;;9.33;4.20;;;;;;;14.92;97.20;99951.06;5002155;28;20821;-49
2023/06/09 02:04:00;;;;;;;3.87;3.57;;;;;;;14.85;96.69;99958.56;5001048;28;20539;-49
2023/06/09 02:06:27;;;;;;;4.50;3.93;;;;;;;14.51;98.26;99949.56;5005582;28;20885;-50
2023/06/09 02:08:54;;;;;;;32.83;4.53;;;;;;;14.57;98.35;99945.72;5007429;28;20445;-49
2023/06/09 02:11:21;;;;;;;4.63;3.67;;;;;;;14.24;99.27;99942.88;5003386;28;20459;-49
2023/06/09 02:13:55;;;;;;;5.53;4.10;;;;;;;14.27;99.50;99942.75;5000803;28;20504;-49
2023/06/09 02:16:22;;;;;;;4.13;3.93;;;;;;;14.31;99.57;99947.00;5003973;28;20449;-49
2023/06/09 02:18:49;;;;;;;8.13;3.70;;;;;;;14.53;98.61;99944.16;5006577;28;20800;-50
2023/06/09 02:21:15;;;;;;;4.00;3.10;;;;;;;14.24;99.58;99937.53;5004936;28;20961;-50
2023/06/09 02:23:42;;;;;;;4.23;3.63;;;;;;;14.36;99.51;99942.25;5016687;22;20525;-82
2023/06/09 02:26:08;;;;;;;9.37;5.63;;;;;;;14.43;98.54;99914.28;5038247;28;20462;-82
2023/06/09 02:28:35;;;;;;;4.07;3.87;;;;;;;14.62;98.29;99940.13;5038221;28;20475;-82
2023/06/09 02:31:03;;;;;;;4.67;4.37;;;;;;;14.30;98.07;99939.91;5035934;28;20459;-82
2023/06/09 02:33:30;;;;;;;5.57;3.73;;;;;;;14.31;99.72;99930.94;5035389;28;20440;-82
2023/06/09 02:35:57;;;;;;;4.03;3.50;;;;;;;14.33;99.43;99930.88;5019382;28;20452;-83
2023/06/09 02:38:24;;;;;;;11.03;4.83;;;;;;;14.40;98.80;99924.28;5035254;28;20537;-82
2023/06/09 02:40:51;;;;;;;2.90;2.70;;;;;;;14.38;98.48;99920.78;5018297;28;20495;-82
2023/06/09 02:43:17;;;;;;;5.03;4.33;;;;;;;14.45;97.85;99936.50;5018095;28;20936;-82
2023/06/09 02:45:44;;;;;;;5.97;3.73;;;;;;;14.20;98.73;99933.28;5017678;28;20455;-82
2023/06/09 02:48:13;;;;;;;4.93;4.20;;;;;;;14.55;98.43;99934.25;5035579;28;20471;-82
2023/06/09 02:50:39;;;;;;;5.00;4.60;;;;;;;14.32;97.82;99927.31;5029888;28;20857;-82
2023/06/09 02:53:07;;;;;;;3.90;3.67;;;;;;;14.15;100.00;99936.19;5018651;28;20479;-82
2023/06/09 02:55:33;;;;;;;6.80;4.37;;;;;;;14.12;99.17;99928.31;5018062;28;20494;-82
2023/06/09 02:58:00;;;;;;;9.30;5.13;;;;;;;14.14;99.33;99928.25;5035914;28;20513;-82
2023/06/09 03:00:27;;;;;;;4.17;3.93;;;;;;;14.18;99.25;99936.03;5017779;28;20852;-82
2023/06/09 03:02:53;;;;;;;3.57;3.37;;;;;;;13.92;100.00;99934.63;5035187;28;20444;-82
2023/06/09 03:05:20;;;;;;;4.17;3.87;;;;;;;14.15;100.00;99935.31;5016842;28;20936;-82
2023/06/09 03:07:48;;;;;;;7.20;3.90;;;;;;;13.71;100.00;99930.31;5034499;28;20521;-82
2023/06/09 03:10:15;;;;;;;4.40;4.00;;;;;;;13.97;100.00;99937.06;5017687;28;20451;-83
2023/06/09 03:12:41;;;;;;;4.70;4.30;;;;;;;13.89;100.00;99937.44;5021554;28;20460;-82
2023/06/09 03:15:08;;;;;;;3.30;2.53;;;;;;;14.04;100.00;99943.00;5034822;28;21009;-82
2023/06/09 03:17:34;;;;;;;4.47;4.10;;;;;;;14.01;100.00;99937.81;5016974;28;20475;-82
2023/06/09 03:20:01;;;;;;;3.50;3.30;;;;;;;14.10;100.00;99942.69;5016970;28;20494;-82
2023/06/09 03:22:28;;;;;;;6.07;3.97;;;;;;;14.08;100.00;99929.38;5017313;28;20506;-82
2023/06/09 03:24:54;;;;;;;7.13;4.60;;;;;;;13.84;100.00;99934.13;5034497;28;20455;-82
2023/06/09 03:27:21;;;;;;;14.23;4.73;;;;;;;13.83;100.00;99943.06;5042161;28;20482;-82
2023/06/09 03:29:47;;;;;;;4.30;3.17;;;;;;;13.84;100.00;99931.47;5034312;28;20899;-82
2023/06/09 03:32:14;;;;;;;4.27;4.03;;;;;;;13.78;100.00;99945.09;5016809;28;20555;-82
2023/06/09 03:34:40;;;;;;;4.17;3.87;;;;;;;13.72;100.00;99939.19;5016886;28;20471;-83
2023/06/09 03:37:10;;;;;;;4.73;3.60;;;;;;;13.76;100.00;99948.78;5016975;28;20547;-83
2023/06/09 03:39:36;;;;;;;5.80;4.67;;;;;;;13.68;100.00;99948.25;5016441;28;20494;-83
2023/06/09 03:42:03;;;;;;;12.73;4.17;;;;;;;13.77;100.00;99954.06;5033970;28;20448;-83
2023/06/09 03:44:30;;;;;;;4.00;3.70;;;;;;;13.71;100.00;99956.16;5016927;28;20893;-83
2023/06/09 03:46:56;;;;;;;14.50;4.07;;;;;;;13.85;100.00;99948.38;5033048;28;20474;-83
2023/06/09 03:49:23;;;;;;;3.87;3.47;;;;;;;13.87;100.00;99946.47;5018789;28;20466;-82
2023/06/09 03:51:49;;;;;;;6.83;3.10;;;;;;;13.89;100.00;99948.13;5047112;28;20521;-82
2023/06/09 03:54:16;;;;;;;3.90;3.60;;;;;;;13.99;100.00;99953.03;5017065;28;20474;-82
2023/06/09 03:56:42;;;;;;;4.60;4.20;;;;;;;13.94;100.00;99953.25;5032359;28;20456;-82
2023/06/09 03:59:09;;;;;;;4.63;4.37;;;;;;;14.04;100.00;99949.19;5034294;28;20447;-82
2023/06/09 04:01:36;;;;;;;3.63;3.43;;;;;;;13.89;100.00;99949.94;5017145;28;21024;-83
2023/06/09 04:04:02;;;;;;;3.90;3.70;;;;;;;14.05;100.00;99950.06;5016776;28;20463;-83
2023/06/09 04:06:29;;;;;;;7.87;3.17;;;;;;;14.16;100.00;99950.41;5016868;28;20454;-83
2023/06/09 04:08:55;;;;;;;3.40;3.20;;;;;;;14.18;100.00;99949.41;5016746;28;20554;-83
2023/06/09 04:11:22;;;;;;;6.83;4.57;;;;;;;13.93;100.00;99956.84;5016750;28;20468;-83
2023/06/09 04:13:48;;;;;;;8.83;4.57;;;;;;;14.10;100.00;99950.69;5034512;28;20452;-82
2023/06/09 04:16:16;;;;;;;5.20;4.33;;;;;;;14.11;100.00;99960.44;5034645;28;20546;-82
2023/06/09 04:18:43;;;;;;;4.43;3.83;;;;;;;14.67;100.00;99959.50;5017053;28;20479;-82
2023/06/09 04:21:11;;;;;;;23.57;3.13;;;;;;;14.44;100.00;99972.22;5017076;28;20487;-82
2023/06/09 04:23:38;;;;;;;4.53;4.13;;;;;;;14.65;100.00;99962.22;5033965;28;20471;-82
2023/06/09 04:26:08;;;;;;;3.40;3.20;;;;;;;14.96;99.15;99964.22;5021089;28;20495;-83
2023/06/09 04:28:35;;;;;;;6.10;4.07;;;;;;;15.15;98.39;99968.63;5036972;28;20539;-82
2023/06/09 04:31:02;;;;;;;4.13;3.87;;;;;;;15.49;97.01;99965.88;5034288;28;20451;-82
2023/06/09 04:33:28;;;;;;;6.37;4.30;;;;;;;15.98;94.23;99963.19;5016264;28;21018;-82
2023/06/09 04:35:55;;;;;;;3.07;2.77;;;;;;;16.44;92.21;99963.25;5016229;28;20499;-82
2023/06/09 04:38:23;;;;;;;12.80;4.23;;;;;;;16.97;89.81;99956.56;5016519;28;20491;-82
2023/06/09 04:40:50;;;;;;;5.70;5.10;;;;;;;17.08;90.09;99959.47;5017775;28;20498;-82
2023/06/09 04:43:16;;;;;;;5.20;4.70;;;;;;;17.42;86.66;99942.16;5021684;28;20454;-82
2023/06/09 04:45:43;;;;;;;6.40;5.80;;;;;;;17.75;86.49;99964.25;5022167;28;20827;-82
2023/06/09 04:48:10;;;;;;;3.60;3.30;;;;;;;17.89;85.72;99954.44;5021389;28;20534;-82
2023/06/09 04:50:37;;;;;;;17.53;4.10;;;;;;;18.01;84.66;99959.03;5033400;28;20493;-82
2023/06/09 04:53:07;;;;;;;2.80;2.60;;;;;;;18.38;83.73;99967.41;5023416;28;20514;-83
2023/06/09 04:55:35;;;;;;;4.17;3.90;;;;;;;18.32;84.73;99977.59;5021893;28;20448;-82
2023/06/09 04:58:01;;;;;;;6.00;3.70;;;;;;;18.45;82.46;99966.88;5038840;28;21069;-83
2023/06/09 05:00:28;;;;;;;4.20;4.00;;;;;;;18.85;81.27;99966.94;5037877;28;20522;-83
2023/06/09 05:02:59;;;;;;;6.13;5.07;;;;;;;19.16;80.14;99963.00;5020535;28;20443;-82
2023/06/09 05:05:26;;;;;;;5.73;5.33;;;;;;;19.09;81.02;99959.88;5021053;28;20436;-81
2023/06/09 05:07:53;;;;;;;6.97;6.27;;;;;;;19.50;79.24;99958.81;5008606;28;20495;-82
2023/06/09 05:10:20;;;;;;;5.20;4.80;;;;;;;19.53;79.16;99955.91;5024075;28;20961;-82
2023/06/09 05:12:47;;;;;;;5.87;5.23;;;;;;;19.70;78.21;99952.88;5030533;28;20444;-82
2023/06/09 05:15:14;;;;;;;5.00;4.47;;;;;;;19.52;79.10;99956.88;5019446;28;20460;-82
2023/06/09 05:17:44;;;;;;;5.13;4.73;;;;;;;19.61;79.66;99952.69;5019315;28;20554;-82
2023/06/09 05:20:10;;;;;;;3.60;3.30;;;;;;;19.41;79.82;99945.97;5017710;28;20484;-82
2023/06/09 05:22:38;;;;;;;3.70;3.23;;;;;;;19.89;78.23;99960.53;5035407;28;20534;-82
2023/06/09 05:25:08;;;;;;;17.27;3.83;;;;;;;20.18;77.45;99968.34;5036036;28;20487;-82
2023/06/09 05:27:36;;;;;;;7.23;5.10;;;;;;;20.28;76.54;99962.13;5010474;28;21007;-82
2023/06/09 05:30:02;;;;;;;3.63;3.43;;;;;;;20.64;75.55;99972.06;5018623;28;20521;-82
2023/06/09 05:32:29;;;;;;;4.80;4.50;;;;;;;21.46;73.53;99972.09;5019412;28;20502;-82
2023/06/09 05:34:56;;;;;;;5.57;4.97;;;;;;;21.18;72.38;99965.25;5037917;28;20478;-81
2023/06/09 05:37:22;;;;;;;4.17;3.90;;;;;;;21.57;71.75;99974.81;5020829;28;20479;-81
2023/06/09 05:39:49;;;;;;;4.40;4.10;;;;;;;21.07;73.51;99970.63;5020403;28;20551;-81
2023/06/09 05:42:15;;;;;;;4.07;3.83;;;;;;;20.69;75.02;99977.97;5038187;28;20452;-81
2023/06/09 05:44:42;;;;;;;9.53;4.50;;;;;;;21.20;73.27;99972.25;5037514;28;20467;-81
2023/06/09 05:47:08;;;;;;;5.07;4.77;;;;;;;21.50;73.20;99976.28;5019639;28;20484;-81
2023/06/09 05:49:38;;;;;;;4.67;4.47;;;;;;;21.68;72.43;99982.09;5036586;28;20458;-81
2023/06/09 05:52:05;;;;;;;3.80;3.50;;;;;;;21.52;72.40;99972.50;5028369;28;20529;-81
2023/06/09 05:54:32;;;;;;;9.87;4.73;;;;;;;21.77;73.08;99984.03;5019522;28;20509;-81
2023/06/09 05:56:59;;;;;;;3.83;3.50;;;;;;;22.14;71.75;99974.72;5021236;28;20495;-81
2023/06/09 05:59:25;;;;;;;2.97;2.87;;;;;;;21.91;72.01;99991.91;5019537;28;20542;-82
2023/06/09 06:01:53;;;;;;;6.77;4.80;;;;;;;22.13;71.01;99978.41;5019757;28;20919;-81
2023/06/09 06:04:20;;;;;;;4.77;4.37;;;;;;;22.16;71.66;99991.69;5037393;28;20451;-81
2023/06/09 06:06:47;;;;;;;3.80;3.60;;;;;;;22.07;71.85;99991.59;5037018;28;20892;-81
2023/06/09 06:09:13;;;;;;;6.00;4.13;;;;;;;22.18;71.81;99981.59;5019612;28;20462;-81
2023/06/09 06:11:40;;;;;;;10.50;4.60;;;;;;;22.41;70.68;99985.13;5019494;28;20571;-82
2023/06/09 06:14:06;;;;;;;9.23;3.50;;;;;;;22.34;72.03;99985.75;5036850;28;20443;-82
2023/06/09 06:16:33;;;;;;;4.43;4.13;;;;;;;22.50;70.42;99988.94;5035573;28;20982;-82
2023/06/09 06:19:00;;;;;;;2.57;2.23;;;;;;;22.73;69.99;99992.41;5018900;28;20456;-82
2023/06/09 06:21:27;;;;;;;4.10;3.80;;;;;;;23.10;nan;99995.63;5019579;28;20522;-82
2023/06/09 06:23:54;;;;;;;2.80;2.60;;;;;;;22.80;70.29;99974.66;5035530;28;20501;-82
2023/06/09 06:26:21;;;;;;;2.13;1.93;;;;;;;23.06;68.45;99980.63;5025968;28;20913;-82
2023/06/09 06:28:48;;;;;;;1.73;1.63;;;;;;;23.30;68.99;99992.06;5054827;23;20530;-49
2023/06/09 06:31:16;;;;;;;2.73;2.60;;;;;;;22.47;68.63;99987.31;5053135;28;20943;-50
2023/06/09 06:33:44;;;;;;;3.93;2.87;;;;;;;22.63;69.17;99986.06;5053008;28;20499;-49
2023/06/09 06:36:10;;;;;;;2.27;2.07;;;;;;;22.31;69.91;99988.72;5053389;28;20461;-49
2023/06/09 06:38:36;;;;;;;2.37;2.23;;;;;;;22.16;70.40;99978.16;5053067;28;20508;-49
2023/06/09 06:41:04;;;;;;;2.47;2.27;;;;;;;22.69;69.28;99986.41;5064291;22;20462;-47
2023/06/09 06:43:30;;;;;;;15.40;3.20;;;;;;;22.69;68.77;99983.69;5033054;28;20455;-47
2023/06/09 06:45:57;;;;;;;2.10;2.00;;;;;;;22.58;70.12;99985.56;5032994;28;21011;-47
2023/06/09 06:48:26;;;;;;;2.33;2.23;;;;;;;22.52;68.83;99983.38;5033230;28;20487;-47
2023/06/09 06:50:52;;;;;;;2.90;2.37;;;;;;;22.58;69.93;99974.72;5032982;28;20502;-47
2023/06/09 06:53:20;;;;;;;5.80;3.10;;;;;;;23.01;68.68;99982.84;5032977;28;21000;-48
2023/06/09 06:55:46;;;;;;;4.60;2.50;;;;;;;22.72;68.67;99988.84;5031090;28;20494;-47
2023/06/09 06:58:13;;;;;;;2.50;2.37;;;;;;;22.51;69.78;99995.22;5032905;28;20482;-47
2023/06/09 07:00:39;;;;;;;4.30;4.00;;;;;;;22.52;69.48;99989.66;5032483;28;20497;-47
2023/06/09 07:03:08;;;;;;;3.20;2.87;;;;;;;22.45;70.22;99993.84;5032383;28;20463;-47
2023/06/09 07:05:36;;;;;;;2.53;2.43;;;;;;;22.28;70.68;99994.38;5032364;28;20458;-47
2023/06/09 07:08:03;;;;;;;2.33;2.23;;;;;;;22.61;70.26;99997.00;5032797;28;20455;-47
2023/06/09 07:10:31;;;;;;;3.67;2.70;;;;;;;22.68;69.16;100000.94;5032259;28;20981;-47
2023/06/09 07:12:57;;;;;;;2.33;2.13;;;;;;;22.70;68.36;100007.09;5032290;28;20471;-48
2023/06/09 07:15:24;;;;;;;2.40;2.30;;;;;;;22.56;69.24;99990.25;5032290;28;20463;-47
2023/06/09 07:17:50;;;;;;;2.40;2.30;;;;;;;22.56;69.91;99996.53;5032307;28;20452;-48
2023/06/09 07:20:17;;;;;;;2.93;2.53;;;;;;;22.53;70.15;99998.66;5032112;28;20451;-47
2023/06/09 07:22:46;;;;;;;2.40;2.20;;;;;;;22.60;69.30;100002.56;5032836;28;20503;-47
2023/06/09 07:25:13;;;;;;;3.50;3.20;;;;;;;22.61;70.18;99996.16;5032187;28;20874;-47
2023/06/09 07:27:39;;;;;;;3.50;2.60;;;;;;;23.01;68.49;99993.69;5032172;28;20534;-47
2023/06/09 07:30:07;;;;;;;8.87;2.70;;;;;;;22.85;68.77;99998.69;5032539;28;20506;-47
2023/06/09 07:32:35;;;;;;;2.70;2.30;;;;;;;22.97;68.39;99989.53;5032282;28;20476;-47
2023/06/09 07:35:02;;;;;;;3.10;2.90;;;;;;;23.20;67.44;99987.56;5032236;28;20825;-47
2023/06/09 07:37:28;;;;;;;3.50;2.63;;;;;;;23.23;66.99;99993.59;5032303;28;20527;-47
2023/06/09 07:39:55;;;;;;;2.87;2.43;;;;;;;23.48;66.07;100002.31;5032164;28;20476;-48
2023/06/09 07:42:41;;;;;;;2.50;2.30;;;;;;;23.21;66.68;100000.13;5032192;28;20463;-47
2023/06/09 07:45:10;;;;;;;7.53;3.50;;;;;;;23.30;65.85;100002.94;5032339;28;20451;-47
2023/06/09 07:47:36;;;;;;;3.37;2.70;;;;;;;23.80;65.73;100000.38;5032191;28;20502;-47
2023/06/09 07:50:06;;;;;;;1.83;1.73;;;;;;;23.36;65.54;100006.94;5032235;28;20467;-48
2023/06/09 07:52:33;;;;;;;4.40;2.90;;;;;;;23.46;64.56;100005.16;5031898;28;20479;-48
2023/06/09 07:55:00;;;;;;;2.30;2.20;;;;;;;23.41;65.05;100011.97;5032299;28;20799;-47
2023/06/09 07:57:26;;;;;;;17.73;3.37;;;;;;;23.44;66.18;100009.03;5030751;28;20539;-47
2023/06/09 07:59:52;;;;;;;5.70;3.37;;;;;;;23.32;66.27;99998.22;5032377;28;20458;-47
2023/06/09 08:02:19;;;;;;;3.13;2.60;;;;;;;23.71;65.49;100005.75;5031981;28;20574;-48
2023/06/09 08:04:45;;;;;;;3.50;3.20;;;;;;;23.67;63.91;100002.44;5031887;28;20831;-47
2023/06/09 08:07:12;;;;;;;3.67;2.53;;;;;;;23.79;63.33;100006.81;5031710;28;20455;-47
2023/06/09 08:09:38;;;;;;;2.40;2.30;;;;;;;23.89;63.75;100005.00;5032102;28;20546;-47
2023/06/09 08:12:06;;;;;;;1.90;1.80;;;;;;;23.78;64.40;99999.66;5031889;28;21057;-47
2023/06/09 08:14:33;;;;;;;2.83;2.63;;;;;;;23.92;64.75;100002.00;5031973;28;20815;-48
2023/06/09 08:16:59;;;;;;;3.10;2.23;;;;;;;24.11;64.37;100003.94;5034720;28;20487;-48
2023/06/09 08:19:28;;;;;;;2.70;2.50;;;;;;;24.04;63.76;100007.34;5035889;28;20451;-48
2023/06/09 08:21:55;;;;;;;3.30;3.10;;;;;;;23.71;63.97;100006.66;5035471;28;21007;-47
2023/06/09 08:24:21;;;;;;;3.10;3.00;;;;;;;23.46;65.39;100002.47;5036001;28;20866;-47
2023/06/09 08:26:48;;;;;;;3.07;2.87;;;;;;;23.87;64.95;99998.00;5035747;28;20452;-48
2023/06/09 08:29:15;;;;;;;2.60;2.40;;;;;;;24.12;62.85;100004.78;5035853;28;20447;-47
2023/06/09 08:31:42;;;;;;;2.13;2.03;;;;;;;24.25;62.20;99994.53;5035495;28;20471;-47
2023/06/09 08:34:09;;;;;;;3.10;2.90;;;;;;;24.16;63.08;100001.69;5035763;28;20462;-48
2023/06/09 08:36:36;;;;;;;2.70;2.50;;;;;;;24.51;60.63;99990.34;5035314;28;20478;-48
2023/06/09 08:39:03;;;;;;;2.70;2.50;;;;;;;24.48;62.09;99996.09;5035663;28;20426;-48
2023/06/09 08:41:37;;;;;;;3.63;3.40;;;;;;;24.39;62.64;99991.47;5035134;28;20535;-47
2023/06/09 08:44:05;;;;;;;3.07;2.87;;;;;;;24.64;62.35;99978.38;5035520;28;20425;-48
2023/06/09 08:46:38;;;;;;;2.47;2.20;;;;;;;24.67;63.23;99998.00;5035607;28;20452;-49
2023/06/09 08:49:05;;;;;;;1.93;1.83;;;;;;;24.58;62.70;99977.09;5035547;28;20851;-48
2023/06/09 08:51:32;;;;;;;2.00;1.90;;;;;;;24.96;61.65;99978.13;5035269;28;20463;-50
2023/06/09 08:54:00;;;;;;;25.17;2.80;;;;;;;24.98;61.62;99978.81;5035504;28;20487;-48
2023/06/09 08:56:27;;;;;;;2.53;2.20;;;;;;;24.26;62.69;99974.56;5033548;28;20453;-48
2023/06/09 08:58:53;;;;;;;9.97;2.63;;;;;;;24.45;61.74;99979.19;5032187;28;20835;-48
2023/06/09 09:01:20;;;;;;;2.20;2.00;;;;;;;24.67;60.96;99980.78;5030187;28;20522;-48
2023/06/09 09:03:47;;;;;;;2.00;1.90;;;;;;;24.81;59.49;99983.13;5035257;28;20830;-48
2023/06/09 09:06:15;;;;;;;2.33;2.23;;;;;;;25.04;60.83;99976.41;5035167;28;20461;-48
2023/06/09 09:08:43;;;;;;;2.60;2.50;;;;;;;25.36;60.43;99975.25;5034923;28;20429;-49
2023/06/09 09:11:10;;;;;;;2.80;2.53;;;;;;;25.61;58.62;99971.00;5034931;28;20467;-47
2023/06/09 09:13:39;;;;;;;2.43;2.33;;;;;;;24.80;60.06;99979.50;5034846;28;20475;-48
2023/06/09 09:16:10;;;;;;;5.67;2.70;;;;;;;25.32;59.38;99980.09;5034740;28;20945;-48
2023/06/09 09:18:37;;;;;;;4.77;3.03;;;;;;;25.32;58.08;99974.66;5034938;28;20451;-47
2023/06/09 09:21:03;;;;;;;3.00;2.80;;;;;;;25.12;59.70;99980.28;5034694;28;20578;-48
2023/06/09 09:23:32;;;;;;;3.33;2.10;;;;;;;25.31;59.01;99972.94;5034581;28;20999;-48
2023/06/09 09:26:05;;;;;;;3.13;2.93;;;;;;;25.17;58.48;99969.81;5030671;28;20949;-48
2023/06/09 09:28:39;;;;;;;8.53;3.50;;;;;;;24.98;58.64;99978.81;5030508;28;20526;-48
2023/06/09 09:31:08;;;;;;;2.80;2.60;;;;;;;25.47;58.23;99974.19;5034639;28;20514;-48
2023/06/09 09:33:38;;;;;;;2.90;2.77;;;;;;;25.57;57.40;99970.44;5034547;28;20456;-48
2023/06/09 09:36:10;;;;;;;5.60;3.50;;;;;;;25.50;56.13;99972.06;5034269;28;20430;-48
2023/06/09 09:38:36;;;;;;;3.07;2.90;;;;;;;25.18;57.99;99974.25;5034382;28;20448;-48
2023/06/09 09:41:04;;;;;;;3.10;2.80;;;;;;;25.78;56.78;99972.16;5034037;28;20533;-48
2023/06/09 09:43:30;;;;;;;2.87;2.63;;;;;;;26.09;55.89;99968.13;5034287;28;20447;-48
2023/06/09 09:46:07;;;;;;;2.73;2.63;;;;;;;26.02;56.00;99956.09;5034188;28;20456;-48
2023/06/09 09:48:38;;;;;;;2.60;2.40;;;;;;;25.88;55.09;99959.31;5022266;28;20443;-48
2023/06/09 09:51:06;;;;;;;2.57;2.43;;;;;;;25.91;55.06;99956.31;5034046;28;20517;-48
2023/06/09 09:53:33;;;;;;;2.40;2.20;;;;;;;25.73;53.85;99953.50;5034002;28;20509;-50
2023/06/09 09:56:00;;;;;;;2.83;2.63;;;;;;;25.99;53.27;99942.78;5032547;28;20452;-50
2023/06/09 09:58:37;;;;;;;1.90;1.80;;;;;;;26.40;54.36;99946.88;5034122;28;20463;-50
2023/06/09 10:01:06;;;;;;;1.80;1.70;;;;;;;26.12;52.52;99947.88;5033936;28;20503;-50
2023/06/09 10:03:38;;;;;;;1.70;1.60;;;;;;;26.25;53.68;99951.97;5034070;28;20443;-50
2023/06/09 10:06:10;;;;;;;2.83;2.73;;;;;;;26.05;53.21;99947.66;5033718;28;20459;-49
2023/06/09 10:08:41;;;;;;;3.20;2.50;;;;;;;26.19;51.82;99944.41;5032721;28;20454;-49
2023/06/09 10:11:08;;;;;;;3.53;3.23;;;;;;;26.75;51.01;99937.03;5033769;28;20445;-50
2023/06/09 10:13:35;;;;;;;2.80;2.63;;;;;;;26.50;51.77;99947.69;5033807;28;20451;-50
2023/06/09 10:16:02;;;;;;;2.73;2.53;;;;;;;26.83;52.68;99945.25;5033672;28;20423;-50
2023/06/09 10:18:28;;;;;;;2.80;2.60;;;;;;;26.41;51.51;99932.25;5033275;28;20765;-50
2023/06/09 10:20:55;;;;;;;2.20;2.10;;;;;;;27.05;49.88;99931.19;5033602;28;20488;-50
2023/06/09 10:23:23;;;;;;;2.07;1.97;;;;;;;26.47;51.69;99931.66;5033558;28;20521;-50
2023/06/09 10:25:50;;;;;;;4.00;3.80;;;;;;;26.48;52.00;99924.31;5031103;28;20454;-50
2023/06/09 10:28:19;;;;;;;2.40;2.20;;;;;;;26.52;51.81;99921.13;5028304;28;20923;-49
2023/06/09 10:30:50;;;;;;;2.87;2.77;;;;;;;26.97;50.46;99916.56;5033297;28;20575;-50
2023/06/09 10:33:33;;;;;;;1.80;1.70;;;;;;;26.62;48.94;99921.06;5033334;28;20509;-50
2023/06/09 10:36:05;;;;;;;2.47;2.37;;;;;;;27.49;47.94;99905.72;5033504;28;20869;-50
2023/06/09 10:38:35;;;;;;;2.70;2.50;;;;;;;26.97;48.74;99903.78;5032440;28;20471;-50
2023/06/09 10:41:11;;;;;;;2.20;2.10;;;;;;;27.05;50.25;99913.94;5033061;28;20481;-49
2023/06/09 10:43:51;;;;;;;2.80;2.60;;;;;;;27.29;47.87;99922.31;5033087;28;20819;-50
2023/06/09 10:46:37;;;;;;;2.70;2.60;;;;;;;27.23;47.13;99912.03;5033033;28;20506;-50
2023/06/09 10:49:04;;;;;;;2.07;1.80;;;;;;;27.10;47.44;99893.34;5033421;28;20443;-49
2023/06/09 10:51:30;;;;;;;1.90;1.80;;;;;;;27.18;48.63;99905.34;5033184;28;20516;-49
2023/06/09 10:54:06;;;;;;;3.10;1.67;;;;;;;27.00;47.41;99898.03;5032949;28;20448;-49
2023/06/09 10:56:45;;;;;;;1.63;1.53;;;;;;;27.21;47.47;99899.56;5032820;28;20966;-49
2023/06/09 10:59:24;;;;;;;5.77;1.57;;;;;;;27.47;46.93;99902.28;5032956;28;20429;-50
2023/06/09 11:02:02;;;;;;;2.50;2.30;;;;;;;27.34;46.53;99894.53;5032749;28;20578;-50
2023/06/09 11:04:45;;;;;;;1.63;1.53;;;;;;;27.79;46.13;99898.88;5032770;28;20496;-50
2023/06/09 11:07:15;;;;;;;1.70;1.60;;;;;;;28.04;45.62;99890.63;5032776;28;20497;-50
2023/06/09 11:09:48;;;;;;;1.93;1.83;;;;;;;27.62;44.88;99892.47;5032735;28;20933;-50
2023/06/09 11:12:27;;;;;;;1.57;1.47;;;;;;;27.54;45.58;99886.94;5031406;28;20491;-49
2023/06/09 11:14:58;;;;;;;2.23;2.00;;;;;;;27.91;44.41;99897.59;5032567;28;20452;-50
2023/06/09 11:17:36;;;;;;;1.70;1.60;;;;;;;27.95;45.35;99894.34;5032480;28;20446;-49
2023/06/09 11:20:11;;;;;;;2.40;2.00;;;;;;;27.40;45.23;99885.69;5032798;28;20447;-50
2023/06/09 11:22:42;;;;;;;1.93;1.83;;;;;;;27.13;45.58;99883.97;5020629;28;20505;-49
2023/06/09 11:25:30;;;;;;;2.10;2.00;;;;;;;27.40;45.73;99877.50;5032281;28;20422;-49
2023/06/09 11:27:59;;;;;;;3.83;2.07;;;;;;;27.41;45.14;99873.75;5023778;28;20434;-50
2023/06/09 11:30:28;;;;;;;1.80;1.70;;;;;;;27.64;45.05;99874.94;5032291;28;20452;-50
2023/06/09 11:32:56;;;;;;;2.10;2.00;;;;;;;27.37;45.08;99873.22;5032343;28;20815;-50
2023/06/09 11:35:22;;;;;;;2.73;2.43;;;;;;;28.21;44.47;99877.00;5032335;28;20433;-50
2023/06/09 11:37:53;;;;;;;1.43;1.33;;;;;;;27.79;44.01;99880.63;5032277;28;20452;-50